createdAt,value
2022-10-09T00:00:04.202Z,3.65
2022-10-09T00:05:05.849Z,3.63
2022-10-09T00:10:07.325Z,3.58
2022-10-09T00:15:08.816Z,3.54
2022-10-09T00:20:10.190Z,3.54
2022-10-09T00:25:11.579Z,3.44
2022-10-09T00:30:12.960Z,3.42
2022-10-09T00:35:14.266Z,3.33
2022-10-09T00:40:15.975Z,3.27
2022-10-09T00:45:19.275Z,3.24
2022-10-09T00:50:30.666Z,3.24
2022-10-09T00:55:34.147Z,3.17
2022-10-09T01:00:35.506Z,3.09
2022-10-09T01:05:45.966Z,3.07
2022-10-09T01:10:59.163Z,3.08
2022-10-09T01:16:03.785Z,3.00
2022-10-09T01:21:05.112Z,2.93
2022-10-09T01:26:17.366Z,2.89
2022-10-09T01:31:19.043Z,2.84
2022-10-09T01:36:21.482Z,2.88
2022-10-09T01:41:22.916Z,2.75
2022-10-09T01:46:31.786Z,2.70
2022-10-09T01:51:38.591Z,2.65
2022-10-09T01:56:40.679Z,2.60
2022-10-09T02:01:42.766Z,2.60
2022-10-09T02:06:45.823Z,2.80
2022-10-09T02:11:51.042Z,2.78
2022-10-09T02:16:56.923Z,2.85
2022-10-09T02:22:01.180Z,2.92
2022-10-09T02:27:02.802Z,3.02
2022-10-09T02:32:04.120Z,3.02
2022-10-09T02:37:05.724Z,2.93
2022-10-09T02:42:07.029Z,2.97
2022-10-09T02:47:08.478Z,3.02
2022-10-09T02:52:09.828Z,3.08
2022-10-09T02:57:11.144Z,3.21
2022-10-09T03:02:12.498Z,3.11
2022-10-09T03:07:13.941Z,3.17
2022-10-09T03:12:21.102Z,3.14
2022-10-09T03:17:22.445Z,3.26
2022-10-09T03:22:23.756Z,3.31
2022-10-09T03:27:25.084Z,3.43
2022-10-09T03:32:26.797Z,3.36
2022-10-09T03:37:28.150Z,3.39
2022-10-09T03:42:29.522Z,3.41
2022-10-09T03:47:31.161Z,3.42
2022-10-09T03:52:32.459Z,3.47
2022-10-09T03:57:33.867Z,3.42
2022-10-09T04:02:35.323Z,3.46
2022-10-09T04:07:36.667Z,3.39
2022-10-09T04:12:38.016Z,3.35
2022-10-09T04:17:39.324Z,3.45
2022-10-09T04:22:40.621Z,3.33
2022-10-09T04:27:41.979Z,3.30
2022-10-09T04:32:43.279Z,3.52
2022-10-09T04:37:44.605Z,3.42
2022-10-09T04:42:46.018Z,3.40
2022-10-09T04:47:47.434Z,3.44
2022-10-09T04:52:48.979Z,3.20
2022-10-09T04:57:50.476Z,3.41
2022-10-09T05:02:52.075Z,3.17
2022-10-09T05:07:53.573Z,3.26
2022-10-09T05:12:54.910Z,3.40
2022-10-09T05:17:56.296Z,3.17
2022-10-09T05:22:57.626Z,3.26
2022-10-09T05:28:00.275Z,3.20
2022-10-09T05:33:01.569Z,3.23
2022-10-09T05:38:02.871Z,3.22
2022-10-09T05:43:04.169Z,2.98
2022-10-09T05:48:05.544Z,2.79
2022-10-09T05:53:06.845Z,2.97
2022-10-09T05:58:08.163Z,3.04
2022-10-09T06:03:09.458Z,3.22
2022-10-09T06:08:10.761Z,3.29
2022-10-09T06:13:12.058Z,3.05
2022-10-09T06:18:13.353Z,3.03
2022-10-09T06:23:14.658Z,3.20
2022-10-09T06:28:16.012Z,3.78
2022-10-09T06:33:17.405Z,4.17
2022-10-09T06:38:18.704Z,4.31
2022-10-09T06:43:20.050Z,4.46
2022-10-09T06:48:21.367Z,4.60
2022-10-09T06:53:22.667Z,4.78
2022-10-09T06:58:24.088Z,5.04
2022-10-09T07:03:25.385Z,5.00
2022-10-09T07:08:26.697Z,5.07
2022-10-09T07:13:29.367Z,5.20
2022-10-09T07:18:31.614Z,5.14
2022-10-09T07:23:33.675Z,5.57
2022-10-09T07:28:35.157Z,5.60
2022-10-09T07:33:36.571Z,5.69
2022-10-09T07:38:37.928Z,5.64
2022-10-09T07:43:39.848Z,5.81
2022-10-09T07:48:41.427Z,6.06
2022-10-09T07:53:43.461Z,6.90
2022-10-09T07:58:49.407Z,8.69
2022-10-09T08:03:50.786Z,11.43
2022-10-09T08:08:53.090Z,12.15
2022-10-09T08:13:54.552Z,13.51
2022-10-09T08:18:59.522Z,15.59
2022-10-09T08:24:01.022Z,14.45
2022-10-09T08:29:03.530Z,14.36
2022-10-09T08:34:05.224Z,15.15
2022-10-09T08:39:06.555Z,14.33
2022-10-09T08:44:09.616Z,14.69
2022-10-09T08:49:18.267Z,15.14
2022-10-09T08:54:24.978Z,16.22
2022-10-09T08:59:26.852Z,16.08
2022-10-09T09:04:34.196Z,16.87
2022-10-09T09:09:35.490Z,17.48
2022-10-09T09:14:47.459Z,16.98
2022-10-09T09:20:01.240Z,16.88
2022-10-09T09:25:14.426Z,16.26
2022-10-09T09:30:21.551Z,18.03
2022-10-09T09:35:34.154Z,17.98
2022-10-09T09:40:37.789Z,18.41
2022-10-09T09:45:39.607Z,17.94
2022-10-09T09:50:50.631Z,19.02
2022-10-09T09:56:01.227Z,20.14
2022-10-09T10:01:03.466Z,19.99
2022-10-09T10:06:04.951Z,19.31
2022-10-09T10:11:07.058Z,21.15
2022-10-09T10:16:08.829Z,20.41
2022-10-09T10:21:14.115Z,21.39
2022-10-09T10:26:24.575Z,20.81
2022-10-09T10:31:44.795Z,20.68
2022-10-09T10:36:46.882Z,21.52
2022-10-09T10:41:51.287Z,21.69
2022-10-09T10:47:01.648Z,20.53
2022-10-09T10:52:12.094Z,21.31
2022-10-09T10:57:13.384Z,22.02
2022-10-09T11:02:32.000Z,21.89
2022-10-09T11:07:45.823Z,21.55
2022-10-09T11:12:52.483Z,21.66
2022-10-09T11:17:59.675Z,21.95
2022-10-09T11:23:20.004Z,20.92
2022-10-09T11:28:27.129Z,20.91
2022-10-09T11:33:36.827Z,20.91
2022-10-09T11:38:40.769Z,20.41
2022-10-09T11:43:52.643Z,21.27
2022-10-09T11:49:17.380Z,21.31
2022-10-09T11:54:20.384Z,20.21
2022-10-09T11:59:25.745Z,21.01
2022-10-09T12:09:57.487Z,20.57
2022-10-09T12:15:10.118Z,19.73
2022-10-09T12:20:19.390Z,20.19
2022-10-09T12:25:40.617Z,20.10
2022-10-09T12:30:47.828Z,19.60
2022-10-09T12:35:58.809Z,19.98
2022-10-09T12:41:05.512Z,19.79
2022-10-09T12:46:06.963Z,19.93
2022-10-09T12:51:19.378Z,19.73
2022-10-09T12:56:22.966Z,19.90
2022-10-09T13:01:24.565Z,19.89
2022-10-09T13:06:27.226Z,19.56
2022-10-09T13:11:32.179Z,19.44
2022-10-09T13:16:44.708Z,19.09
2022-10-09T13:21:46.058Z,19.15
2022-10-09T13:26:47.398Z,19.13
2022-10-09T13:31:48.771Z,19.13
2022-10-09T13:36:50.462Z,18.80
2022-10-09T13:41:55.440Z,19.07
2022-10-09T13:46:56.906Z,19.04
2022-10-09T13:51:58.278Z,18.60
2022-10-09T13:56:59.686Z,18.32
2022-10-09T14:02:01.107Z,18.63
2022-10-09T14:07:02.549Z,18.50
2022-10-09T14:12:03.989Z,18.40
2022-10-09T14:17:05.356Z,18.50
2022-10-09T14:22:06.704Z,17.93
2022-10-09T14:27:08.019Z,17.71
2022-10-09T14:32:09.323Z,17.50
2022-10-09T14:37:23.754Z,17.04
2022-10-09T14:42:31.392Z,16.73
2022-10-09T14:47:32.695Z,16.67
2022-10-09T14:52:33.992Z,16.46
2022-10-09T14:57:35.848Z,16.28
2022-10-09T15:02:37.308Z,16.23
2022-10-09T15:07:38.659Z,16.12
2022-10-09T15:12:40.888Z,16.05
2022-10-09T15:17:42.245Z,15.97
2022-10-09T15:22:43.718Z,15.84
2022-10-09T15:27:45.020Z,15.72
2022-10-09T15:32:46.326Z,15.62
2022-10-09T15:37:49.389Z,15.52
2022-10-09T15:42:53.028Z,15.43
2022-10-09T15:47:54.482Z,15.39
2022-10-09T15:52:57.586Z,15.54
2022-10-09T15:57:58.897Z,15.32
2022-10-09T16:03:00.221Z,15.22
2022-10-09T16:08:01.575Z,14.79
2022-10-09T16:13:03.114Z,14.49
2022-10-09T16:18:04.513Z,14.32
2022-10-09T16:23:06.554Z,14.08
2022-10-09T16:28:09.026Z,13.74
2022-10-09T16:33:12.863Z,13.61
2022-10-09T16:38:14.976Z,13.33
2022-10-09T16:43:16.623Z,12.83
2022-10-09T16:48:17.919Z,12.48
2022-10-09T16:53:19.266Z,12.16
2022-10-09T16:58:20.575Z,11.95
2022-10-09T17:03:21.906Z,11.73
2022-10-09T17:08:23.195Z,11.37
2022-10-09T17:13:24.527Z,10.98
2022-10-09T17:18:25.874Z,10.71
2022-10-09T17:23:27.176Z,10.55
2022-10-09T17:28:28.806Z,10.40
2022-10-09T17:33:30.153Z,10.24
2022-10-09T17:38:31.468Z,10.07
2022-10-09T17:43:33.120Z,9.86
2022-10-09T17:48:34.696Z,9.64
2022-10-09T17:53:36.011Z,9.45
2022-10-09T17:58:37.875Z,9.31
2022-10-09T18:03:39.196Z,9.17
2022-10-09T18:08:40.510Z,8.99
2022-10-09T18:13:42.503Z,8.88
2022-10-09T18:18:44.018Z,8.75
2022-10-09T18:23:45.987Z,8.65
2022-10-09T18:28:48.632Z,8.47
2022-10-09T18:33:50.727Z,8.30
2022-10-09T18:38:53.524Z,8.19
2022-10-09T18:43:54.980Z,8.09
2022-10-09T18:48:56.532Z,8.00
2022-10-09T18:54:00.155Z,7.88
2022-10-09T18:59:03.626Z,7.75
2022-10-09T19:04:04.950Z,7.65
2022-10-09T19:09:06.311Z,7.53
2022-10-09T19:14:07.609Z,7.43
2022-10-09T19:19:08.939Z,7.37
2022-10-09T19:24:11.231Z,7.28
2022-10-09T19:29:12.579Z,7.20
2022-10-09T19:34:14.132Z,7.14
2022-10-09T19:39:15.889Z,7.06
2022-10-09T19:44:17.516Z,6.93
2022-10-09T19:49:18.791Z,6.81
2022-10-09T19:54:20.084Z,6.72
2022-10-09T19:59:21.384Z,6.65
2022-10-09T20:04:22.686Z,6.55
2022-10-09T20:09:24.008Z,6.50
2022-10-09T20:14:25.543Z,6.45
2022-10-09T20:19:30.749Z,6.37
2022-10-09T20:24:32.170Z,6.29
2022-10-09T20:29:33.472Z,6.16
2022-10-09T20:34:34.782Z,6.03
2022-10-09T20:39:36.104Z,6.02
2022-10-09T20:44:37.614Z,5.91
2022-10-09T20:49:38.922Z,5.84
2022-10-09T20:54:40.324Z,5.80
2022-10-09T20:59:41.686Z,5.71
2022-10-09T21:04:42.987Z,5.62
2022-10-09T21:09:44.305Z,5.56
2022-10-09T21:14:45.767Z,5.52
2022-10-09T21:19:48.510Z,5.44
2022-10-09T21:24:49.919Z,5.40
2022-10-09T21:29:51.226Z,5.39
2022-10-09T21:34:52.550Z,5.43
2022-10-09T21:39:54.082Z,5.40
2022-10-09T21:44:55.382Z,5.35
2022-10-09T21:49:56.686Z,5.32
2022-10-09T21:54:57.999Z,5.24
2022-10-09T21:59:59.316Z,5.16
2022-10-09T22:05:00.650Z,5.08
2022-10-09T22:10:02.702Z,5.01
2022-10-09T22:15:04.290Z,5.04
2022-10-09T22:20:05.787Z,5.08
2022-10-09T22:25:07.339Z,5.05
2022-10-09T22:30:08.907Z,4.95
2022-10-09T22:35:10.219Z,4.83
2022-10-09T22:40:11.514Z,4.73
2022-10-09T22:45:12.814Z,4.80
2022-10-09T22:50:14.159Z,4.79
2022-10-09T22:55:15.465Z,4.72
2022-10-09T23:00:16.806Z,4.69
2022-10-09T23:05:18.106Z,4.66
2022-10-09T23:10:19.432Z,4.66
2022-10-09T23:15:20.740Z,4.68
2022-10-09T23:20:22.057Z,4.70
2022-10-09T23:25:23.434Z,4.83
2022-10-09T23:30:24.733Z,5.32
2022-10-09T23:35:26.103Z,5.75
2022-10-09T23:40:27.421Z,5.52
2022-10-09T23:45:28.751Z,5.67
2022-10-09T23:50:30.051Z,5.88
2022-10-09T23:55:31.354Z,6.34
